Terminal Aerodrome Forecast
Issued by NWS Mt. Holly, NJ

Home | Current Version | Previous Version | Text Only | Print | Product List | Glossary On
Versions: 1 2 3 4 5 6 7 8 9 10 11 12 13 14 15 16 17 18 19 20 21 22 23 24 25 26 27 28 29 30 31 32 33 34 35 36 37 38 39 40 41 42 43 44 45 46
000
FTUS41 KPHI 191121
TAFABE
TAF
KABE 191121Z 1912/2012 VRB03KT P6SM BKN250
     FM191300 14004KT P6SM OVC040
      TEMPO 1914/1917 -SHRA
     FM192000 17008G16KT 4SM -RA OVC015
     FM192200 16005KT 2SM -RA OVC007
     FM200300 VRB02KT 4SM BR OVC005
     FM200700 VRB02KT 1SM -DZ BR OVC003=

USA.gov is the U.S. government's official web portal to all federal, state and local government web resources and services.